sensor_id;sensor_type;location;lat;lon;timestamp;pressure;altitude;pressure_sealevel;temperature;humidity
72558;BME280;60583;50.094;8.748;2023-10-08T00:01:49;101043.44;;;17.06;76.03
72558;BME280;60583;50.094;8.748;2023-10-08T00:04:16;101029.00;;;17.01;76.31
72558;BME280;60583;50.094;8.748;2023-10-08T00:06:45;101037.91;;;17.01;76.11
72558;BME280;60583;50.094;8.748;2023-10-08T00:09:11;101052.97;;;17.09;76.51
72558;BME280;60583;50.094;8.748;2023-10-08T00:11:37;101056.31;;;17.04;76.84
72558;BME280;60583;50.094;8.748;2023-10-08T00:14:04;101056.09;;;17.06;76.96
72558;BME280;60583;50.094;8.748;2023-10-08T00:16:58;101051.38;;;17.01;76.74
72558;BME280;60583;50.094;8.748;2023-10-08T00:19:25;101056.38;;;16.98;77.00
72558;BME280;60583;50.094;8.748;2023-10-08T00:21:51;101062.53;;;17.05;77.00
72558;BME280;60583;50.094;8.748;2023-10-08T00:24:18;101052.88;;;16.97;77.34
72558;BME280;60583;50.094;8.748;2023-10-08T00:26:48;101056.31;;;17.04;77.19
72558;BME280;60583;50.094;8.748;2023-10-08T00:29:14;101044.34;;;17.00;77.31
72558;BME280;60583;50.094;8.748;2023-10-08T00:31:47;101053.25;;;17.01;77.34
72558;BME280;60583;50.094;8.748;2023-10-08T00:34:16;101046.88;;;16.95;77.32
72558;BME280;60583;50.094;8.748;2023-10-08T00:36:47;101066.06;;;17.05;77.57
72558;BME280;60583;50.094;8.748;2023-10-08T00:39:13;101071.69;;;17.04;77.27
72558;BME280;60583;50.094;8.748;2023-10-08T00:41:46;101050.56;;;17.01;77.11
72558;BME280;60583;50.094;8.748;2023-10-08T00:44:13;101079.22;;;17.13;77.12
72558;BME280;60583;50.094;8.748;2023-10-08T00:46:41;101027.47;;;16.87;77.34
72558;BME280;60583;50.094;8.748;2023-10-08T00:49:15;101060.66;;;17.05;77.45
72558;BME280;60583;50.094;8.748;2023-10-08T00:51:56;101062.47;;;17.11;77.38
72558;BME280;60583;50.094;8.748;2023-10-08T00:54:31;101022.47;;;16.90;77.49
72558;BME280;60583;50.094;8.748;2023-10-08T00:57:05;101032.38;;;16.96;77.60
72558;BME280;60583;50.094;8.748;2023-10-08T00:59:34;101051.31;;;17.08;77.44
72558;BME280;60583;50.094;8.748;2023-10-08T01:02:09;101046.50;;;17.10;77.15
72558;BME280;60583;50.094;8.748;2023-10-08T01:04:40;101038.41;;;17.10;77.22
72558;BME280;60583;50.094;8.748;2023-10-08T01:07:05;101039.50;;;17.09;77.52
72558;BME280;60583;50.094;8.748;2023-10-08T01:09:44;101040.06;;;17.11;77.21
72558;BME280;60583;50.094;8.748;2023-10-08T01:15:57;101013.03;;;16.99;77.05
72558;BME280;60583;50.094;8.748;2023-10-08T01:18:23;101036.09;;;17.13;77.62
72558;BME280;60583;50.094;8.748;2023-10-08T01:20:57;101034.53;;;17.06;77.04
72558;BME280;60583;50.094;8.748;2023-10-08T01:23:29;101015.81;;;16.93;77.11
72558;BME280;60583;50.094;8.748;2023-10-08T01:25:57;101039.84;;;17.12;76.66
72558;BME280;60583;50.094;8.748;2023-10-08T01:28:38;101001.31;;;16.94;76.67
72558;BME280;60583;50.094;8.748;2023-10-08T01:31:04;101054.81;;;17.27;76.65
72558;BME280;60583;50.094;8.748;2023-10-08T01:33:30;101024.34;;;17.08;76.69
72558;BME280;60583;50.094;8.748;2023-10-08T01:35:57;101053.69;;;17.16;76.93
72558;BME280;60583;50.094;8.748;2023-10-08T01:38:30;101040.53;;;17.08;77.05
72558;BME280;60583;50.094;8.748;2023-10-08T01:40:58;101049.00;;;17.11;76.54
72558;BME280;60583;50.094;8.748;2023-10-08T01:43:29;101040.38;;;17.03;76.84
72558;BME280;60583;50.094;8.748;2023-10-08T01:45:55;101061.19;;;17.14;76.72
72558;BME280;60583;50.094;8.748;2023-10-08T01:48:21;101046.44;;;16.98;77.23
72558;BME280;60583;50.094;8.748;2023-10-08T01:50:59;101062.53;;;17.05;76.81
72558;BME280;60583;50.094;8.748;2023-10-08T01:53:27;101050.31;;;17.02;76.98
72558;BME280;60583;50.094;8.748;2023-10-08T01:55:53;101063.28;;;17.12;76.91
72558;BME280;60583;50.094;8.748;2023-10-08T01:58:21;101072.41;;;17.11;76.95
72558;BME280;60583;50.094;8.748;2023-10-08T02:00:48;101074.00;;;17.18;76.66
72558;BME280;60583;50.094;8.748;2023-10-08T02:03:14;101042.31;;;16.96;76.95
72558;BME280;60583;50.094;8.748;2023-10-08T02:05:48;101045.47;;;16.93;76.95
72558;BME280;60583;50.094;8.748;2023-10-08T02:08:14;101059.25;;;17.03;77.29
72558;BME280;60583;50.094;8.748;2023-10-08T02:10:41;101056.00;;;16.94;77.25
72558;BME280;60583;50.094;8.748;2023-10-08T02:13:08;101072.31;;;16.99;77.37
72558;BME280;60583;50.094;8.748;2023-10-08T02:15:43;101036.47;;;16.81;77.22
72558;BME280;60583;50.094;8.748;2023-10-08T02:18:08;101059.09;;;16.98;77.20
72558;BME280;60583;50.094;8.748;2023-10-08T02:20:34;101050.09;;;16.86;77.71
72558;BME280;60583;50.094;8.748;2023-10-08T02:22:59;101017.75;;;16.68;77.66
72558;BME280;60583;50.094;8.748;2023-10-08T02:25:25;101030.81;;;16.89;77.71
72558;BME280;60583;50.094;8.748;2023-10-08T02:27:51;101038.56;;;16.97;77.42
72558;BME280;60583;50.094;8.748;2023-10-08T02:30:17;101016.63;;;16.75;77.79
72558;BME280;60583;50.094;8.748;2023-10-08T02:32:43;101031.84;;;16.88;77.61
72558;BME280;60583;50.094;8.748;2023-10-08T02:35:09;101025.53;;;16.76;77.73
72558;BME280;60583;50.094;8.748;2023-10-08T02:37:39;101034.81;;;16.80;77.77
72558;BME280;60583;50.094;8.748;2023-10-08T02:40:08;101042.38;;;16.71;78.30
72558;BME280;60583;50.094;8.748;2023-10-08T02:42:43;101033.63;;;16.76;78.21
72558;BME280;60583;50.094;8.748;2023-10-08T02:45:11;101005.78;;;16.64;78.22
72558;BME280;60583;50.094;8.748;2023-10-08T02:47:43;101004.56;;;16.59;78.90
72558;BME280;60583;50.094;8.748;2023-10-08T02:50:12;100999.28;;;16.46;79.04
72558;BME280;60583;50.094;8.748;2023-10-08T02:52:43;101035.41;;;16.64;78.64
72558;BME280;60583;50.094;8.748;2023-10-08T02:55:10;101018.13;;;16.46;79.31
72558;BME280;60583;50.094;8.748;2023-10-08T02:57:49;101022.03;;;16.50;78.91
72558;BME280;60583;50.094;8.748;2023-10-08T03:00:16;101039.41;;;16.54;78.87
72558;BME280;60583;50.094;8.748;2023-10-08T03:02:44;101062.78;;;16.61;79.00
72558;BME280;60583;50.094;8.748;2023-10-08T03:05:12;101071.97;;;16.53;78.99
72558;BME280;60583;50.094;8.748;2023-10-08T03:07:38;101036.63;;;16.36;78.78
72558;BME280;60583;50.094;8.748;2023-10-08T03:10:05;101053.50;;;16.50;78.98
72558;BME280;60583;50.094;8.748;2023-10-08T03:12:34;101041.00;;;16.37;79.51
72558;BME280;60583;50.094;8.748;2023-10-08T03:15:00;101068.06;;;16.42;79.70
72558;BME280;60583;50.094;8.748;2023-10-08T03:17:32;101068.69;;;16.44;79.77
72558;BME280;60583;50.094;8.748;2023-10-08T03:20:02;101066.41;;;16.41;79.64
72558;BME280;60583;50.094;8.748;2023-10-08T03:22:48;101066.06;;;16.38;79.59
72558;BME280;60583;50.094;8.748;2023-10-08T03:25:15;101075.16;;;16.37;79.28
72558;BME280;60583;50.094;8.748;2023-10-08T03:27:41;101103.44;;;16.52;79.31
72558;BME280;60583;50.094;8.748;2023-10-08T03:30:08;101102.22;;;16.48;79.54
72558;BME280;60583;50.094;8.748;2023-10-08T03:32:40;101078.19;;;16.22;79.51
72558;BME280;60583;50.094;8.748;2023-10-08T03:35:07;101087.44;;;16.26;79.30
72558;BME280;60583;50.094;8.748;2023-10-08T03:37:36;101103.78;;;16.31;79.62
72558;BME280;60583;50.094;8.748;2023-10-08T03:40:11;101117.88;;;16.33;80.04
72558;BME280;60583;50.094;8.748;2023-10-08T03:43:08;101117.88;;;16.33;79.62
72558;BME280;60583;50.094;8.748;2023-10-08T03:45:53;101105.91;;;16.23;79.79
72558;BME280;60583;50.094;8.748;2023-10-08T03:48:20;101090.44;;;16.18;79.72
72558;BME280;60583;50.094;8.748;2023-10-08T03:50:48;101087.56;;;16.13;79.85
72558;BME280;60583;50.094;8.748;2023-10-08T03:53:22;101096.69;;;16.12;80.36
72558;BME280;60583;50.094;8.748;2023-10-08T03:55:48;101106.22;;;16.08;80.57
72558;BME280;60583;50.094;8.748;2023-10-08T03:58:17;101093.22;;;16.05;80.74
72558;BME280;60583;50.094;8.748;2023-10-08T04:00:57;101096.50;;;16.07;80.79
72558;BME280;60583;50.094;8.748;2023-10-08T04:03:37;101094.84;;;16.06;80.75
72558;BME280;60583;50.094;8.748;2023-10-08T04:06:20;101106.47;;;16.00;81.21
72558;BME280;60583;50.094;8.748;2023-10-08T04:08:53;101076.38;;;15.85;81.34
72558;BME280;60583;50.094;8.748;2023-10-08T04:11:35;101105.41;;;16.01;81.69
72558;BME280;60583;50.094;8.748;2023-10-08T04:14:03;101111.88;;;16.00;81.82
72558;BME280;60583;50.094;8.748;2023-10-08T04:16:29;101103.38;;;15.96;81.86
72558;BME280;60583;50.094;8.748;2023-10-08T04:18:55;101099.09;;;15.89;82.05
72558;BME280;60583;50.094;8.748;2023-10-08T04:21:24;101083.38;;;15.86;82.23
72558;BME280;60583;50.094;8.748;2023-10-08T04:24:02;101062.38;;;15.70;82.33
72558;BME280;60583;50.094;8.748;2023-10-08T04:26:31;101081.69;;;15.91;82.46
72558;BME280;60583;50.094;8.748;2023-10-08T04:28:59;101053.66;;;15.74;82.82
72558;BME280;60583;50.094;8.748;2023-10-08T04:31:30;101072.19;;;15.89;82.66
72558;BME280;60583;50.094;8.748;2023-10-08T04:34:09;101081.91;;;15.90;82.98
72558;BME280;60583;50.094;8.748;2023-10-08T04:36:43;101070.56;;;15.88;82.67
72558;BME280;60583;50.094;8.748;2023-10-08T04:39:14;101069.72;;;15.87;82.74
72558;BME280;60583;50.094;8.748;2023-10-08T04:41:40;101080.00;;;15.97;82.01
72558;BME280;60583;50.094;8.748;2023-10-08T04:44:11;101090.34;;;15.93;82.67
72558;BME280;60583;50.094;8.748;2023-10-08T04:46:42;101080.06;;;15.90;82.51
72558;BME280;60583;50.094;8.748;2023-10-08T04:49:17;101089.56;;;15.93;82.22
72558;BME280;60583;50.094;8.748;2023-10-08T04:51:57;101101.16;;;15.87;82.70
72558;BME280;60583;50.094;8.748;2023-10-08T04:54:26;101087.97;;;15.79;83.10
72558;BME280;60583;50.094;8.748;2023-10-08T04:56:59;101107.81;;;15.84;82.92
72558;BME280;60583;50.094;8.748;2023-10-08T04:59:28;101085.97;;;15.68;83.07
72558;BME280;60583;50.094;8.748;2023-10-08T05:02:01;101116.91;;;15.83;83.02
72558;BME280;60583;50.094;8.748;2023-10-08T05:04:49;101106.19;;;15.77;82.96
72558;BME280;60583;50.094;8.748;2023-10-08T05:07:32;101109.47;;;15.79;82.86
72558;BME280;60583;50.094;8.748;2023-10-08T05:10:18;101108.63;;;15.85;82.92
72558;BME280;60583;50.094;8.748;2023-10-08T05:12:50;101091.38;;;15.61;83.93
72558;BME280;60583;50.094;8.748;2023-10-08T05:15:38;101086.00;;;15.61;83.90
72558;BME280;60583;50.094;8.748;2023-10-08T05:18:08;101089.75;;;15.54;84.53
72558;BME280;60583;50.094;8.748;2023-10-08T05:20:49;101094.69;;;15.57;84.12
72558;BME280;60583;50.094;8.748;2023-10-08T05:23:17;101061.66;;;15.43;84.41
72558;BME280;60583;50.094;8.748;2023-10-08T05:25:50;101088.72;;;15.55;84.19
72558;BME280;60583;50.094;8.748;2023-10-08T05:28:34;101083.56;;;15.47;84.59
72558;BME280;60583;50.094;8.748;2023-10-08T05:31:11;101102.16;;;15.55;85.08
72558;BME280;60583;50.094;8.748;2023-10-08T05:33:56;101067.03;;;15.50;84.47
72558;BME280;60583;50.094;8.748;2023-10-08T05:36:42;101075.69;;;15.52;85.19
72558;BME280;60583;50.094;8.748;2023-10-08T05:39:26;101066.03;;;15.38;85.35
72558;BME280;60583;50.094;8.748;2023-10-08T05:42:04;101076.97;;;15.43;85.02
72558;BME280;60583;50.094;8.748;2023-10-08T05:44:44;101065.41;;;15.36;85.38
72558;BME280;60583;50.094;8.748;2023-10-08T05:47:36;101042.91;;;15.30;85.55
72558;BME280;60583;50.094;8.748;2023-10-08T05:50:02;101067.44;;;15.47;85.03
72558;BME280;60583;50.094;8.748;2023-10-08T05:52:43;101081.50;;;15.42;85.60
72558;BME280;60583;50.094;8.748;2023-10-08T05:55:30;101102.59;;;15.52;84.85
72558;BME280;60583;50.094;8.748;2023-10-08T05:58:03;101052.81;;;15.29;85.16
72558;BME280;60583;50.094;8.748;2023-10-08T06:00:46;101100.13;;;15.50;85.33
72558;BME280;60583;50.094;8.748;2023-10-08T06:03:32;101098.00;;;15.59;84.98
72558;BME280;60583;50.094;8.748;2023-10-08T06:06:06;101089.72;;;15.60;84.74
72558;BME280;60583;50.094;8.748;2023-10-08T06:08:38;101109.13;;;15.69;84.28
72558;BME280;60583;50.094;8.748;2023-10-08T06:11:22;101131.41;;;15.76;84.76
72558;BME280;60583;50.094;8.748;2023-10-08T06:14:11;101143.72;;;15.59;86.07
72558;BME280;60583;50.094;8.748;2023-10-08T06:16:52;101162.28;;;15.67;85.99
72558;BME280;60583;50.094;8.748;2023-10-08T06:19:39;101142.25;;;15.56;85.48
72558;BME280;60583;50.094;8.748;2023-10-08T06:22:04;101152.75;;;15.71;85.87
72558;BME280;60583;50.094;8.748;2023-10-08T06:24:29;101157.09;;;15.72;85.17
72558;BME280;60583;50.094;8.748;2023-10-08T06:26:58;101158.94;;;15.78;85.04
72558;BME280;60583;50.094;8.748;2023-10-08T06:29:32;101130.03;;;15.67;84.37
72558;BME280;60583;50.094;8.748;2023-10-08T06:31:58;101143.66;;;15.72;84.48
72558;BME280;60583;50.094;8.748;2023-10-08T06:34:30;101171.34;;;15.85;84.94
72558;BME280;60583;50.094;8.748;2023-10-08T06:36:58;101163.28;;;15.79;84.71
72558;BME280;60583;50.094;8.748;2023-10-08T06:39:25;101188.03;;;15.94;83.76
72558;BME280;60583;50.094;8.748;2023-10-08T06:42:13;101158.09;;;15.84;83.68
72558;BME280;60583;50.094;8.748;2023-10-08T06:44:39;101199.41;;;15.96;83.05
72558;BME280;60583;50.094;8.748;2023-10-08T06:47:07;101199.41;;;16.03;82.84
72558;BME280;60583;50.094;8.748;2023-10-08T06:49:35;101181.63;;;15.88;83.02
72558;BME280;60583;50.094;8.748;2023-10-08T06:52:01;101156.47;;;15.76;83.62
72558;BME280;60583;50.094;8.748;2023-10-08T06:54:26;101164.56;;;15.70;84.62
72558;BME280;60583;50.094;8.748;2023-10-08T06:56:56;101178.63;;;15.72;85.03
72558;BME280;60583;50.094;8.748;2023-10-08T06:59:21;101175.97;;;15.59;85.22
72558;BME280;60583;50.094;8.748;2023-10-08T07:01:51;101189.00;;;15.62;85.12
72558;BME280;60583;50.094;8.748;2023-10-08T07:04:17;101195.19;;;15.62;85.47
72558;BME280;60583;50.094;8.748;2023-10-08T07:06:44;101185.28;;;15.56;85.45
72558;BME280;60583;50.094;8.748;2023-10-08T07:09:12;101183.19;;;15.58;85.25
72558;BME280;60583;50.094;8.748;2023-10-08T07:11:53;101195.16;;;15.75;84.79
72558;BME280;60583;50.094;8.748;2023-10-08T07:14:27;101207.13;;;15.79;84.28
72558;BME280;60583;50.094;8.748;2023-10-08T07:16:57;101201.34;;;15.76;83.79
72558;BME280;60583;50.094;8.748;2023-10-08T07:19:26;101203.81;;;15.90;83.49
72558;BME280;60583;50.094;8.748;2023-10-08T07:22:02;101206.25;;;15.92;83.12
72558;BME280;60583;50.094;8.748;2023-10-08T07:24:31;101231.47;;;16.04;83.67
72558;BME280;60583;50.094;8.748;2023-10-08T07:27:01;101214.09;;;16.00;83.60
72558;BME280;60583;50.094;8.748;2023-10-08T07:29:31;101230.38;;;16.12;83.82
72558;BME280;60583;50.094;8.748;2023-10-08T07:31:58;101208.25;;;16.10;83.86
72558;BME280;60583;50.094;8.748;2023-10-08T07:34:35;101218.59;;;16.13;82.64
72558;BME280;60583;50.094;8.748;2023-10-08T07:37:01;101226.22;;;16.22;82.35
72558;BME280;60583;50.094;8.748;2023-10-08T07:39:26;101217.72;;;16.19;82.45
72558;BME280;60583;50.094;8.748;2023-10-08T07:42:01;101184.69;;;16.05;82.42
72558;BME280;60583;50.094;8.748;2023-10-08T07:44:27;101184.63;;;16.12;82.80
72558;BME280;60583;50.094;8.748;2023-10-08T07:46:53;101198.50;;;16.15;82.92
72558;BME280;60583;50.094;8.748;2023-10-08T07:49:20;101192.34;;;16.02;83.21
72558;BME280;60583;50.094;8.748;2023-10-08T07:51:45;101181.78;;;16.07;82.98
72558;BME280;60583;50.094;8.748;2023-10-08T07:54:20;101190.91;;;16.06;83.24
72558;BME280;60583;50.094;8.748;2023-10-08T07:56:47;101193.53;;;16.12;83.73
72558;BME280;60583;50.094;8.748;2023-10-08T07:59:14;101180.75;;;16.01;83.05
72558;BME280;60583;50.094;8.748;2023-10-08T08:01:41;101150.78;;;15.98;83.06
72558;BME280;60583;50.094;8.748;2023-10-08T08:04:09;101147.44;;;16.02;83.08
72558;BME280;60583;50.094;8.748;2023-10-08T08:06:37;101157.78;;;16.05;82.94
72558;BME280;60583;50.094;8.748;2023-10-08T08:09:03;101190.38;;;16.28;82.16
72558;BME280;60583;50.094;8.748;2023-10-08T08:11:43;101202.75;;;16.36;81.42
72558;BME280;60583;50.094;8.748;2023-10-08T08:14:11;101206.00;;;16.44;80.87
72558;BME280;60583;50.094;8.748;2023-10-08T08:16:36;101201.38;;;16.51;80.78
72558;BME280;60583;50.094;8.748;2023-10-08T08:19:03;101207.63;;;16.52;80.49
72558;BME280;60583;50.094;8.748;2023-10-08T08:21:28;101199.94;;;16.55;80.21
72558;BME280;60583;50.094;8.748;2023-10-08T08:23:55;101185.06;;;16.53;80.15
72558;BME280;60583;50.094;8.748;2023-10-08T08:26:30;101206.13;;;16.63;79.81
72558;BME280;60583;50.094;8.748;2023-10-08T08:29:05;101200.97;;;16.54;79.80
72558;BME280;60583;50.094;8.748;2023-10-08T08:31:34;101225.75;;;16.70;79.93
72558;BME280;60583;50.094;8.748;2023-10-08T08:34:03;101208.97;;;16.68;79.11
72558;BME280;60583;50.094;8.748;2023-10-08T08:36:33;101233.56;;;16.78;79.47
72558;BME280;60583;50.094;8.748;2023-10-08T08:38:59;101168.34;;;16.38;79.23
72558;BME280;60583;50.094;8.748;2023-10-08T08:41:24;101220.78;;;16.67;79.62
72558;BME280;60583;50.094;8.748;2023-10-08T08:43:54;101245.94;;;16.85;79.59
72558;BME280;60583;50.094;8.748;2023-10-08T08:46:34;101233.31;;;16.86;79.19
72558;BME280;60583;50.094;8.748;2023-10-08T08:49:05;101248.16;;;16.95;78.78
72558;BME280;60583;50.094;8.748;2023-10-08T08:51:33;101206.72;;;16.65;79.26
72558;BME280;60583;50.094;8.748;2023-10-08T08:54:01;101208.13;;;16.74;78.98
72558;BME280;60583;50.094;8.748;2023-10-08T08:56:33;101270.97;;;17.17;78.29
72558;BME280;60583;50.094;8.748;2023-10-08T08:58:59;101218.84;;;17.05;77.70
72558;BME280;60583;50.094;8.748;2023-10-08T09:01:25;101261.69;;;17.38;77.25
72558;BME280;60583;50.094;8.748;2023-10-08T09:03:50;101248.88;;;17.33;76.89
72558;BME280;60583;50.094;8.748;2023-10-08T09:06:16;101239.91;;;17.39;76.87
72558;BME280;60583;50.094;8.748;2023-10-08T09:08:41;101256.78;;;17.53;76.85
72558;BME280;60583;50.094;8.748;2023-10-08T09:11:17;101277.72;;;17.75;76.42
72558;BME280;60583;50.094;8.748;2023-10-08T09:13:42;101286.81;;;17.99;76.06
72558;BME280;60583;50.094;8.748;2023-10-08T09:16:13;101286.50;;;18.25;75.54
72558;BME280;60583;50.094;8.748;2023-10-08T09:18:41;101280.78;;;18.33;73.90
72558;BME280;60583;50.094;8.748;2023-10-08T09:21:10;101296.44;;;18.43;73.47
72558;BME280;60583;50.094;8.748;2023-10-08T09:23:42;101300.22;;;18.60;73.29
72558;BME280;60583;50.094;8.748;2023-10-08T09:26:09;101304.06;;;18.82;73.14
72558;BME280;60583;50.094;8.748;2023-10-08T09:28:37;101299.38;;;18.89;72.16
72558;BME280;60583;50.094;8.748;2023-10-08T09:31:04;101281.88;;;18.92;71.63
72558;BME280;60583;50.094;8.748;2023-10-08T09:33:32;101273.75;;;18.80;71.65
72558;BME280;60583;50.094;8.748;2023-10-08T09:36:01;101289.00;;;18.86;71.88
72558;BME280;60583;50.094;8.748;2023-10-08T09:38:35;101279.66;;;19.00;71.62
72558;BME280;60583;50.094;8.748;2023-10-08T09:41:02;101261.13;;;19.16;71.04
72558;BME280;60583;50.094;8.748;2023-10-08T09:43:29;101295.63;;;19.55;70.05
72558;BME280;60583;50.094;8.748;2023-10-08T09:46:02;101292.78;;;19.85;69.90
72558;BME280;60583;50.094;8.748;2023-10-08T09:48:31;101286.44;;;19.91;69.09
72558;BME280;60583;50.094;8.748;2023-10-08T09:51:02;101286.53;;;19.84;68.58
72558;BME280;60583;50.094;8.748;2023-10-08T09:56:15;101263.97;;;19.67;68.67
72558;BME280;60583;50.094;8.748;2023-10-08T09:58:43;101281.84;;;19.91;67.38
72558;BME280;60583;50.094;8.748;2023-10-08T10:01:10;101258.06;;;19.93;67.48
72558;BME280;60583;50.094;8.748;2023-10-08T10:03:36;101244.44;;;19.65;68.88
72558;BME280;60583;50.094;8.748;2023-10-08T10:06:01;101257.88;;;19.60;68.52
72558;BME280;60583;50.094;8.748;2023-10-08T10:08:27;101271.28;;;19.55;68.82
72558;BME280;60583;50.094;8.748;2023-10-08T10:11:01;101258.56;;;19.67;68.36
72558;BME280;60583;50.094;8.748;2023-10-08T10:13:44;101254.34;;;19.71;68.06
72558;BME280;60583;50.094;8.748;2023-10-08T10:16:10;101282.75;;;19.97;67.85
72558;BME280;60583;50.094;8.748;2023-10-08T10:18:38;101263.25;;;19.83;66.84
72558;BME280;60583;50.094;8.748;2023-10-08T10:23:40;101273.03;;;19.72;67.30
72558;BME280;60583;50.094;8.748;2023-10-08T10:26:34;101283.03;;;19.72;67.09
72558;BME280;60583;50.094;8.748;2023-10-08T10:29:20;101301.81;;;20.25;67.70
72558;BME280;60583;50.094;8.748;2023-10-08T10:34:31;101240.69;;;21.19;62.84
72558;BME280;60583;50.094;8.748;2023-10-08T10:37:00;101252.97;;;22.19;59.36
72558;BME280;60583;50.094;8.748;2023-10-08T10:39:53;101250.91;;;22.05;59.37
72558;BME280;60583;50.094;8.748;2023-10-08T10:42:21;101288.03;;;22.21;59.32
72558;BME280;60583;50.094;8.748;2023-10-08T10:44:48;101309.34;;;22.72;58.92
72558;BME280;60583;50.094;8.748;2023-10-08T10:47:18;101313.81;;;23.42;56.91
72558;BME280;60583;50.094;8.748;2023-10-08T10:49:44;101304.66;;;24.52;55.05
72558;BME280;60583;50.094;8.748;2023-10-08T10:52:35;101282.41;;;25.46;51.66
72558;BME280;60583;50.094;8.748;2023-10-08T10:55:17;101310.97;;;27.50;46.50
72558;BME280;60583;50.094;8.748;2023-10-08T10:57:44;101305.88;;;28.62;43.14
72558;BME280;60583;50.094;8.748;2023-10-08T11:00:11;101323.34;;;29.41;40.87
72558;BME280;60583;50.094;8.748;2023-10-08T11:02:58;101294.78;;;29.69;40.52
72558;BME280;60583;50.094;8.748;2023-10-08T11:05:51;101320.22;;;29.80;39.63
72558;BME280;60583;50.094;8.748;2023-10-08T11:08:20;101292.47;;;29.12;39.77
72558;BME280;60583;50.094;8.748;2023-10-08T11:10:48;101325.03;;;28.20;41.63
72558;BME280;60583;50.094;8.748;2023-10-08T11:13:21;101293.94;;;27.19;43.39
72558;BME280;60583;50.094;8.748;2023-10-08T11:15:50;101301.63;;;26.79;45.42
72558;BME280;60583;50.094;8.748;2023-10-08T11:18:21;101320.53;;;26.06;47.07
72558;BME280;60583;50.094;8.748;2023-10-08T11:20:48;101320.06;;;25.74;48.59
72558;BME280;60583;50.094;8.748;2023-10-08T11:23:41;101261.91;;;24.93;49.31
72558;BME280;60583;50.094;8.748;2023-10-08T11:26:07;101311.75;;;26.19;46.73
72558;BME280;60583;50.094;8.748;2023-10-08T11:28:36;101322.16;;;26.81;46.48
72558;BME280;60583;50.094;8.748;2023-10-08T11:31:09;101310.94;;;26.83;46.13
72558;BME280;60583;50.094;8.748;2023-10-08T11:33:39;101301.34;;;27.19;45.56
72558;BME280;60583;50.094;8.748;2023-10-08T11:36:06;101279.66;;;26.89;44.79
72558;BME280;60583;50.094;8.748;2023-10-08T11:38:41;101295.66;;;26.18;45.94
72558;BME280;60583;50.094;8.748;2023-10-08T11:41:11;101250.44;;;25.51;47.93
72558;BME280;60583;50.094;8.748;2023-10-08T11:43:52;101250.72;;;25.29;48.27
72558;BME280;60583;50.094;8.748;2023-10-08T11:46:26;101273.38;;;25.55;48.00
72558;BME280;60583;50.094;8.748;2023-10-08T11:48:56;101232.91;;;24.51;50.25
72558;BME280;60583;50.094;8.748;2023-10-08T11:51:24;101236.44;;;24.42;51.12
72558;BME280;60583;50.094;8.748;2023-10-08T11:53:50;101259.25;;;24.21;51.74
72558;BME280;60583;50.094;8.748;2023-10-08T11:56:17;101275.06;;;24.14;52.77
72558;BME280;60583;50.094;8.748;2023-10-08T11:58:46;101258.56;;;23.93;52.37
72558;BME280;60583;50.094;8.748;2023-10-08T12:01:11;101269.69;;;24.34;51.80
72558;BME280;60583;50.094;8.748;2023-10-08T12:03:44;101248.09;;;24.27;52.44
72558;BME280;60583;50.094;8.748;2023-10-08T12:06:11;101257.19;;;25.74;48.96
72558;BME280;60583;50.094;8.748;2023-10-08T12:08:43;101264.59;;;27.25;45.76
72558;BME280;60583;50.094;8.748;2023-10-08T12:11:11;101264.38;;;27.98;43.81
72558;BME280;60583;50.094;8.748;2023-10-08T12:13:38;101252.16;;;28.14;42.54
72558;BME280;60583;50.094;8.748;2023-10-08T12:16:03;101256.72;;;28.42;42.08
72558;BME280;60583;50.094;8.748;2023-10-08T12:18:35;101234.22;;;28.59;41.73
72558;BME280;60583;50.094;8.748;2023-10-08T12:21:09;101242.78;;;28.57;41.88
72558;BME280;60583;50.094;8.748;2023-10-08T12:23:40;101261.88;;;28.25;42.28
72558;BME280;60583;50.094;8.748;2023-10-08T12:26:08;101246.41;;;28.90;41.49
72558;BME280;60583;50.094;8.748;2023-10-08T12:28:35;101244.16;;;29.43;39.62
72558;BME280;60583;50.094;8.748;2023-10-08T12:31:02;101255.38;;;30.14;38.39
72558;BME280;60583;50.094;8.748;2023-10-08T12:33:29;101257.16;;;29.83;38.91
72558;BME280;60583;50.094;8.748;2023-10-08T12:35:55;101244.78;;;30.35;37.92
72558;BME280;60583;50.094;8.748;2023-10-08T12:38:21;101246.94;;;30.11;38.00
72558;BME280;60583;50.094;8.748;2023-10-08T12:40:48;101262.00;;;30.27;37.56
72558;BME280;60583;50.094;8.748;2023-10-08T12:43:24;101251.13;;;29.03;39.81
72558;BME280;60583;50.094;8.748;2023-10-08T12:45:54;101267.66;;;28.00;41.53
72558;BME280;60583;50.094;8.748;2023-10-08T12:48:23;101263.66;;;27.40;43.53
72558;BME280;60583;50.094;8.748;2023-10-08T12:50:50;101260.91;;;26.67;45.91
72558;BME280;60583;50.094;8.748;2023-10-08T12:53:26;101262.06;;;25.97;47.79
72558;BME280;60583;50.094;8.748;2023-10-08T12:56:08;101254.78;;;24.77;50.20
72558;BME280;60583;50.094;8.748;2023-10-08T12:58:41;101258.31;;;24.72;50.89
72558;BME280;60583;50.094;8.748;2023-10-08T13:01:12;101227.97;;;24.38;51.32
72558;BME280;60583;50.094;8.748;2023-10-08T13:03:39;101245.88;;;24.09;52.38
72558;BME280;60583;50.094;8.748;2023-10-08T13:06:08;101228.47;;;23.68;53.33
72558;BME280;60583;50.094;8.748;2023-10-08T13:08:40;101255.09;;;23.56;54.07
72558;BME280;60583;50.094;8.748;2023-10-08T13:11:06;101252.81;;;23.38;55.07
72558;BME280;60583;50.094;8.748;2023-10-08T13:13:31;101223.00;;;23.26;55.01
72558;BME280;60583;50.094;8.748;2023-10-08T13:15:58;101246.34;;;23.54;54.75
72558;BME280;60583;50.094;8.748;2023-10-08T13:18:26;101231.16;;;23.26;54.55
72558;BME280;60583;50.094;8.748;2023-10-08T13:20:52;101207.31;;;23.02;55.10
72558;BME280;60583;50.094;8.748;2023-10-08T13:23:17;101219.31;;;23.06;55.55